Time;durP1;ratioP1;P1;durP2;ratioP2;P2;SDS_P1;SDS_P2;PMS_P1;PMS_P2;Temp;Humidity;BMP_temperature;BMP_pressure;BME280_temperature;BME280_humidity;BME280_pressure;Samples;Min_cycle;Max_cycle;Signal;HPM_P1;HPM_P2
2023/10/18 07:01:30;;;;;;;0.70;0.70;;;9.10;99.90;11.20;100321.00;;;;5940105;22;7406019;-66
2023/10/18 07:04:19;;;;;;;1.60;1.50;;;8.90;99.90;11.10;100330.00;;;;6252084;22;20234;-66
2023/10/18 07:06:57;;;;;;;4.47;0.70;;;9.00;99.90;12.10;100332.00;;;;6275837;22;20173;-67
2023/10/18 07:09:32;;;;;;;0.87;0.87;;;9.20;99.90;12.50;100348.00;;;;6276423;22;20588;-67
2023/10/18 07:12:03;;;;;;;0.77;0.77;;;9.40;99.90;12.20;100332.00;;;;6278188;22;20166;-67
2023/10/18 07:14:50;;;;;;;2.40;1.27;;;9.50;99.90;11.40;100292.00;;;;6276306;22;20165;-67
2023/10/18 07:17:25;;;;;;;1.70;1.63;;;9.20;99.90;11.70;100333.00;;;;6276169;22;20158;-68
2023/10/18 07:19:58;;;;;;;0.60;0.60;;;9.30;99.90;12.10;100319.00;;;;6276120;22;20236;-68
2023/10/18 07:22:54;;;;;;;1.33;1.23;;;9.30;99.90;11.50;100323.00;;;;6276401;22;20183;-68
2023/10/18 07:25:27;;;;;;;2.27;2.10;;;9.40;99.90;11.70;100322.00;;;;6275961;22;20496;-68
2023/10/18 07:27:55;;;;;;;0.20;0.20;;;9.40;99.90;12.80;100316.00;;;;6278462;22;20144;-68
2023/10/18 07:30:37;;;;;;;0.90;0.90;;;9.70;99.90;12.80;100335.00;;;;6248778;22;20522;-68
2023/10/18 07:33:23;;;;;;;2.70;1.10;;;9.80;99.90;12.70;100314.00;;;;6278317;22;20281;-68
2023/10/18 07:35:52;;;;;;;0.30;0.30;;;10.00;99.90;12.20;100294.00;;;;6277579;22;20453;-68
2023/10/18 07:38:28;;;;;;;1.13;1.07;;;9.90;99.90;12.40;100308.00;;;;6276442;22;20135;-68
2023/10/18 07:41:00;;;;;;;1.07;0.97;;;9.90;99.90;13.10;100299.00;;;;6251602;22;20161;-68
2023/10/18 07:43:55;;;;;;;1.20;0.93;;;10.20;99.90;12.70;100288.00;;;;6276412;22;20168;-70
2023/10/18 07:46:57;;;;;;;0.60;0.60;;;10.30;99.90;12.80;100257.00;;;;6276531;22;20243;-68
2023/10/18 07:49:28;;;;;;;1.43;1.40;;;10.30;99.90;13.10;100292.00;;;;6276285;22;20200;-69
2023/10/18 07:52:04;;;;;;;0.20;0.20;;;10.40;99.90;13.30;100280.00;;;;6276428;22;20182;-69
2023/10/18 07:54:42;;;;;;;0.63;0.63;;;10.40;99.90;13.20;100276.00;;;;6276042;22;20171;-69
2023/10/18 07:57:18;;;;;;;1.27;1.03;;;10.50;99.90;13.20;100266.00;;;;6250425;22;20168;-69
2023/10/18 08:02:52;;;;;;;0.77;0.77;;;10.50;99.90;13.70;100258.00;;;;6277546;22;20179;-68
2023/10/18 08:05:30;;;;;;;2.93;1.60;;;10.70;99.90;13.30;100253.00;;;;6275752;22;20169;-68
2023/10/18 08:08:08;;;;;;;6.63;3.60;;;10.70;99.90;12.70;100243.00;;;;6274747;22;20259;-68
2023/10/18 08:10:39;;;;;;;0.60;0.60;;;10.60;99.90;14.10;100225.00;;;;6276590;22;20152;-68
2023/10/18 08:13:25;;;;;;;0.97;0.93;;;11.00;99.90;14.10;100224.00;;;;6275617;22;20176;-67
2023/10/18 08:15:56;;;;;;;1.63;1.53;;;11.20;99.90;13.80;100250.00;;;;6276040;22;20135;-68
2023/10/18 08:21:25;;;;;;;2.73;2.30;;;11.10;99.90;13.50;100248.00;;;;6277226;22;20148;-68
2023/10/18 08:24:13;;;;;;;0.60;0.60;;;11.10;99.90;14.00;100245.00;;;;6251676;22;20162;-67
2023/10/18 08:26:53;;;;;;;1.50;0.90;;;11.30;99.90;14.50;100244.00;;;;6252088;22;20161;-69
2023/10/18 08:29:34;;;;;;;0.50;0.50;;;11.50;99.90;13.70;100236.00;;;;6276688;22;20515;-69
2023/10/18 08:32:04;;;;;;;1.10;1.10;;;11.60;99.90;13.00;100196.00;;;;6252015;22;20617;-69
2023/10/18 08:34:36;;;;;;;1.17;1.17;;;11.20;99.90;13.60;100205.00;;;;6276206;22;20157;-69
2023/10/18 08:37:06;;;;;;;1.23;1.03;;;11.10;99.90;14.40;100221.00;;;;6250813;22;20187;-69
2023/10/18 08:39:39;;;;;;;2.33;0.37;;;11.40;99.90;15.10;100226.00;;;;6275888;22;20588;-69
2023/10/18 08:42:14;;;;;;;1.20;1.20;;;11.80;99.90;14.90;100234.00;;;;6276303;22;20144;-66
2023/10/18 08:44:45;;;;;;;0.50;0.50;;;12.00;99.90;14.70;100228.00;;;;6274773;22;20149;-70
2023/10/18 08:47:14;;;;;;;1.07;0.87;;;12.10;99.90;15.20;100235.00;;;;6276169;22;20184;-70
2023/10/18 08:49:53;;;;;;;0.20;0.20;;;12.40;99.90;16.10;100237.00;;;;6250460;22;20191;-66
2023/10/18 08:52:23;;;;;;;0.80;0.70;;;12.70;99.90;15.60;100252.00;;;;6249722;22;20179;-66
2023/10/18 08:54:54;;;;;;;0.63;0.63;;;12.70;99.90;16.10;100247.00;;;;6275202;22;20229;-66
2023/10/18 08:57:36;;;;;;;1.03;1.00;;;12.90;99.90;15.30;100253.00;;;;6274538;22;20159;-65
2023/10/18 09:02:53;;;;;;;2.63;1.73;;;12.60;99.90;15.70;100242.00;;;;6252662;22;20157;-68
2023/10/18 09:05:25;;;;;;;0.70;0.70;;;12.90;99.90;16.00;100247.00;;;;6277047;22;20165;-68
2023/10/18 09:07:53;;;;;;;0.70;0.70;;;12.90;99.90;15.30;100236.00;;;;6276391;22;20142;-68
2023/10/18 09:18:24;;;;;;;1.83;1.73;;;13.00;99.90;16.70;100219.00;;;;6274909;22;20147;-68
2023/10/18 09:20:55;;;;;;;2.53;1.20;;;13.50;99.90;17.00;100222.00;;;;6249125;22;20533;-68
2023/10/18 09:23:28;;;;;;;0.60;0.60;;;13.80;99.90;17.90;100226.00;;;;6276049;22;20151;-68
2023/10/18 09:29:02;;;;;;;2.40;1.77;;;14.30;99.90;16.40;100212.00;;;;6276269;22;20148;-68
2023/10/18 09:31:29;;;;;;;1.87;1.10;;;14.00;99.90;16.60;100218.00;;;;6270630;22;20570;-68
2023/10/18 09:33:59;;;;;;;1.17;1.07;;;13.90;99.90;16.20;100227.00;;;;6275501;22;20498;-68
2023/10/18 09:36:30;;;;;;;0.83;0.83;;;13.90;99.90;17.10;100217.00;;;;6250445;22;20158;-68
2023/10/18 09:38:59;;;;;;;0.87;0.80;;;14.00;99.90;16.60;100220.00;;;;6277098;22;20153;-67
2023/10/18 09:41:37;;;;;;;1.73;1.27;;;14.00;99.90;17.10;100211.00;;;;6275845;22;20503;-68
2023/10/18 09:44:06;;;;;;;1.70;1.60;;;14.10;99.90;17.60;100226.00;;;;6277136;22;20142;-68
2023/10/18 09:46:34;;;;;;;0.33;0.33;;;14.40;99.90;18.70;100208.00;;;;6275603;22;20161;-67
2023/10/18 09:49:04;;;;;;;0.47;0.13;;;14.80;99.90;17.50;100227.00;;;;6275153;22;20145;-67
2023/10/18 09:51:36;;;;;;;0.87;0.87;;;14.80;99.90;17.20;100215.00;;;;6276647;22;20511;-68
2023/10/18 09:54:13;;;;;;;0.43;0.43;;;14.60;99.90;17.70;100213.00;;;;6275557;22;20559;-68
2023/10/18 09:56:45;;;;;;;1.30;1.20;;;14.60;99.90;17.60;100204.00;;;;6275670;22;20142;-67
2023/10/18 09:59:25;;;;;;;0.20;0.20;;;14.70;99.90;17.00;100213.00;;;;6250131;22;20593;-67
2023/10/18 10:02:08;;;;;;;0.57;0.57;;;14.50;99.90;17.30;100206.00;;;;6274276;22;20237;-67
2023/10/18 10:04:44;;;;;;;1.33;1.17;;;14.70;99.90;17.30;100184.00;;;;6276672;22;20154;-67
2023/10/18 10:10:08;;;;;;;0.30;0.30;;;14.60;99.90;18.30;100174.00;;;;6274488;22;20150;-72
2023/10/18 10:13:08;;;;;;;1.60;1.50;;;15.00;99.90;17.70;100191.00;;;;6273490;22;20179;-72
2023/10/18 10:15:38;;;;;;;1.17;1.13;;;15.30;99.90;18.30;100183.00;;;;6274667;22;20200;-72
2023/10/18 10:18:09;;;;;;;0.30;0.30;;;15.40;99.90;18.70;100181.00;;;;6274638;22;20143;-66
2023/10/18 10:20:40;;;;;;;1.57;1.47;;;15.40;99.90;18.00;100177.00;;;;6274882;22;20144;-66
2023/10/18 10:34:17;;;;;;;0.77;0.50;;;14.70;99.90;18.10;100085.00;;;;5069751;28;20540;-68
2023/10/18 10:37:18;;;;;;;9.43;1.83;;;15.10;99.90;18.90;100117.00;;;;5039305;28;20222;-63
2023/10/18 10:39:52;;;;;;;1.50;0.73;;;15.50;99.90;19.30;100122.00;;;;5049045;28;20191;-66
2023/10/18 10:46:00;;;;;;;1.93;1.83;;;15.60;99.90;18.80;100125.00;;;;5049799;28;20197;-63
2023/10/18 10:48:56;;;;;;;3.30;2.07;;;15.60;99.90;18.80;100137.00;;;;5036269;28;20196;-67
2023/10/18 10:51:49;;;;;;;0.53;0.53;;;15.50;99.90;18.80;100113.00;;;;5049515;28;20204;-67
2023/10/18 10:54:37;;;;;;;1.47;1.10;;;15.60;99.90;18.70;100139.00;;;;5048301;28;20208;-67
2023/10/18 10:57:27;;;;;;;0.20;0.20;;;15.60;99.90;19.90;100119.00;;;;5065420;28;20176;-68
2023/10/18 11:00:37;;;;;;;1.13;1.03;;;15.90;99.90;19.40;100126.00;;;;5037110;28;20176;-67
2023/10/18 11:03:31;;;;;;;2.17;1.97;;;16.00;99.90;18.70;100138.00;;;;4991494;28;20719;-67
2023/10/18 11:06:34;;;;;;;2.63;0.90;;;16.00;99.90;18.20;100131.00;;;;4982163;28;20259;-67
2023/10/18 11:09:27;;;;;;;1.40;1.30;;;15.70;99.90;19.30;100098.00;;;;4897251;28;20203;-67
2023/10/18 11:11:59;;;;;;;0.40;0.40;;;15.70;99.90;18.80;100116.00;;;;5006961;28;20261;-67
2023/10/18 11:14:31;;;;;;;1.30;0.60;;;15.90;99.90;19.20;100091.00;;;;4991726;28;20290;-67
2023/10/18 11:17:34;;;;;;;1.70;1.60;;;16.10;99.90;19.40;100096.00;;;;4990444;28;20203;-67
2023/10/18 11:20:48;;;;;;;1.37;1.13;;;16.20;99.90;19.80;100077.00;;;;5038799;28;20190;-67
2023/10/18 11:23:33;;;;;;;0.80;0.80;;;16.30;99.90;20.00;100044.00;;;;5045754;28;20187;-67
2023/10/18 11:28:58;;;;;;;0.70;0.70;;;16.80;99.90;20.00;100061.00;;;;4997395;28;20202;-67
2023/10/18 11:31:28;;;;;;;4.23;1.60;;;16.60;99.90;19.80;100076.00;;;;5030106;28;20219;-67
2023/10/18 11:34:15;;;;;;;3.40;1.47;;;16.60;99.90;20.00;100051.00;;;;5029345;28;20548;-68
2023/10/18 11:36:42;;;;;;;0.60;0.60;;;16.80;99.90;20.40;100051.00;;;;5048376;28;20226;-68
2023/10/18 11:42:10;;;;;;;2.07;1.37;;;17.00;99.90;19.60;100041.00;;;;5052952;28;20201;-68
2023/10/18 11:45:07;;;;;;;1.17;1.17;;;16.90;99.90;19.60;100021.00;;;;5037592;28;20227;-68
2023/10/18 11:47:56;;;;;;;2.00;1.27;;;16.70;99.90;19.20;100027.00;;;;5044767;28;20283;-68
2023/10/18 11:50:47;;;;;;;2.47;2.00;;;16.70;99.90;19.90;100025.00;;;;5046479;28;20181;-68
2023/10/18 11:53:23;;;;;;;0.90;0.90;;;16.80;99.90;21.40;99991.00;;;;5034656;28;20223;-68
2023/10/18 11:56:11;;;;;;;1.33;1.33;;;17.40;99.90;21.10;100002.00;;;;5036694;28;20663;-69
2023/10/18 11:58:41;;;;;;;2.90;1.10;;;17.80;99.90;19.80;99977.00;;;;5036786;28;20766;-69
2023/10/18 12:01:31;;;;;;;1.90;1.10;;;17.50;99.90;19.60;100009.00;;;;5027904;28;20191;-69
2023/10/18 12:04:01;;;;;;;2.60;1.20;;;16.80;99.90;19.30;99997.00;;;;5035665;28;20276;-69
2023/10/18 12:06:52;;;;;;;0.93;0.93;;;16.60;99.90;19.40;99993.00;;;;5031483;28;20203;-69
2023/10/18 12:12:55;;;;;;;0.77;0.73;;;16.40;99.90;19.30;99974.00;;;;4993168;28;20263;-69
2023/10/18 12:15:39;;;;;;;0.30;0.30;;;16.30;99.90;20.20;99964.00;;;;4982900;28;20604;-69
2023/10/18 12:18:09;;;;;;;0.70;0.70;;;16.50;99.90;19.50;99969.00;;;;5026206;28;20719;-69
2023/10/18 12:20:45;;;;;;;1.37;1.27;;;16.60;99.90;19.30;99922.00;;;;5033779;28;20178;-69
2023/10/18 12:23:18;;;;;;;4.33;2.27;;;16.50;99.90;19.70;99948.00;;;;5033574;28;20186;-69
2023/10/18 12:25:49;;;;;;;0.70;0.70;;;16.70;99.90;19.90;99933.00;;;;5032551;28;20192;-69
2023/10/18 12:31:27;;;;;;;2.53;1.27;;;16.60;99.90;20.00;99889.00;;;;5016753;28;20693;-69
2023/10/18 12:33:59;;;;;;;1.50;0.97;;;16.60;99.90;20.70;99901.00;;;;5032027;28;20220;-69
2023/10/18 12:36:49;;;;;;;0.50;0.50;;;17.00;99.90;20.70;99900.00;;;;5032059;28;20646;-69
2023/10/18 12:39:21;;;;;;;0.30;0.30;;;17.20;99.90;20.20;99898.00;;;;5034720;28;20551;-69
2023/10/18 12:41:53;;;;;;;0.33;0.33;;;17.10;99.90;20.50;99896.00;;;;5033525;28;20199;-69
2023/10/18 12:44:31;;;;;;;0.93;0.60;;;17.20;99.90;20.40;99874.00;;;;5032825;28;20240;-69
2023/10/18 12:47:21;;;;;;;0.60;0.60;;;17.10;99.90;19.50;99885.00;;;;5025273;28;20188;-69
2023/10/18 12:49:58;;;;;;;0.97;0.40;;;16.90;99.90;20.70;99858.00;;;;5016836;28;20219;-69
2023/10/18 12:55:32;;;;;;;0.27;0.27;;;17.20;99.90;21.30;99866.00;;;;5032417;28;20201;-69
2023/10/18 12:58:28;;;;;;;1.73;0.90;;;17.30;99.90;20.50;99859.00;;;;5033947;28;20226;-69
2023/10/18 13:01:10;;;;;;;1.10;1.00;;;17.20;99.90;20.80;99825.00;;;;5033921;28;20223;-69
2023/10/18 13:04:06;;;;;;;1.37;1.27;;;17.40;99.90;21.00;99823.00;;;;5032032;28;20201;-69
2023/10/18 13:06:42;;;;;;;6.37;1.37;;;17.40;99.90;20.80;99827.00;;;;5016669;28;20238;-69
2023/10/18 13:12:00;;;;;;;0.77;0.77;;;17.40;99.90;21.00;99806.00;;;;5032294;28;20227;-69
2023/10/18 13:14:49;;;;;;;0.40;0.40;;;17.40;99.90;20.20;99794.00;;;;5032440;28;20276;-69
2023/10/18 13:17:33;;;;;;;1.20;1.10;;;17.30;99.90;20.60;99771.00;;;;5027957;28;20186;-69
2023/10/18 13:20:06;;;;;;;2.23;1.07;;;17.40;99.90;20.90;99791.00;;;;5031380;28;20192;-69
2023/10/18 13:22:57;;;;;;;0.20;0.20;;;17.50;99.90;20.80;99772.00;;;;5049529;28;20315;-69
2023/10/18 13:26:05;;;;;;;0.50;0.50;;;17.50;99.90;20.60;99761.00;;;;5027699;28;20350;-69
2023/10/18 13:31:22;;;;;;;1.07;1.07;;;17.30;99.90;20.50;99758.00;;;;5033129;28;20196;-69
2023/10/18 13:33:59;;;;;;;0.70;0.70;;;17.20;99.90;20.50;99749.00;;;;5022575;28;20201;-69
2023/10/18 13:36:32;;;;;;;0.80;0.80;;;17.30;99.90;20.80;99734.00;;;;5031397;28;20193;-69
2023/10/18 13:38:58;;;;;;;1.73;1.63;;;17.40;99.90;20.30;99712.00;;;;5028978;28;20181;-69
2023/10/18 13:41:39;;;;;;;1.23;1.10;;;17.30;99.90;20.60;99722.00;;;;5024239;28;20570;-69
2023/10/18 13:44:09;;;;;;;1.50;1.13;;;17.20;99.90;20.70;99727.00;;;;5028648;28;20231;-69
2023/10/18 13:47:08;;;;;;;1.63;1.53;;;17.20;99.90;20.10;99717.00;;;;5031719;28;20197;-69
2023/10/18 13:49:49;;;;;;;0.63;0.60;;;17.10;99.90;20.40;99707.00;;;;5031001;28;20242;-69
2023/10/18 13:52:17;;;;;;;0.93;0.90;;;17.10;99.90;20.00;99690.00;;;;5029195;28;20291;-69
2023/10/18 13:54:55;;;;;;;0.40;0.40;;;17.10;99.90;20.60;99690.00;;;;5038756;28;20196;-69
2023/10/18 13:57:50;;;;;;;1.70;1.13;;;17.10;99.90;20.50;99699.00;;;;5029837;28;20262;-69
2023/10/18 14:00:21;;;;;;;0.50;0.50;;;17.30;99.90;20.20;99679.00;;;;5034965;28;20211;-69
2023/10/18 14:03:13;;;;;;;1.00;1.00;;;17.00;99.90;20.40;99654.00;;;;5031485;28;20201;-69
2023/10/18 14:05:49;;;;;;;1.13;1.00;;;17.10;99.90;20.40;99663.00;;;;5025797;28;20197;-69
2023/10/18 14:11:46;;;;;;;0.50;0.50;;;16.90;99.90;19.50;99647.00;;;;5034061;28;20285;-69
2023/10/18 14:14:51;;;;;;;1.00;0.87;;;16.70;99.90;19.70;99660.00;;;;5019775;28;20634;-69
2023/10/18 14:17:46;;;;;;;0.30;0.30;;;16.90;99.90;18.80;99602.00;;;;5031932;28;20672;-69
2023/10/18 14:20:26;;;;;;;3.13;1.80;;;16.30;99.90;18.50;99607.00;;;;5021687;28;20287;-69
2023/10/18 14:23:00;;;;;;;0.97;0.70;;;16.20;99.90;19.10;99602.00;;;;5028429;28;20184;-69
2023/10/18 14:25:47;;;;;;;0.83;0.47;;;16.30;99.90;18.90;99583.00;;;;5031279;28;20206;-69
2023/10/18 14:28:28;;;;;;;1.23;1.07;;;16.30;99.90;19.40;99580.00;;;;5030304;28;20660;-69
2023/10/18 14:31:12;;;;;;;0.87;0.77;;;16.30;99.90;19.30;99589.00;;;;5031769;28;20194;-69
2023/10/18 14:34:58;;;;;;;3.03;1.57;;;16.40;99.90;19.80;99602.00;;;;5016356;28;20229;-69
2023/10/18 14:37:25;;;;;;;6.00;1.57;;;16.60;99.90;20.10;99605.00;;;;4988302;28;20177;-69
2023/10/18 14:39:57;;;;;;;2.97;1.27;;;16.70;99.90;19.50;99566.00;;;;4944530;28;20191;-69
2023/10/18 14:42:29;;;;;;;0.40;0.40;;;16.60;99.90;19.40;99582.00;;;;4964671;28;20208;-69
2023/10/18 14:45:35;;;;;;;1.17;1.07;;;16.40;99.90;19.80;99580.00;;;;4965915;28;20317;-69
2023/10/18 14:48:21;;;;;;;1.07;1.07;;;16.50;99.90;19.40;99569.00;;;;4954904;28;20236;-69
2023/10/18 14:51:24;;;;;;;3.77;1.30;;;16.50;99.90;19.90;99561.00;;;;4954145;28;20243;-69
2023/10/18 14:57:02;;;;;;;0.37;0.37;;;16.50;99.90;20.20;99537.00;;;;4957544;28;20225;-69
2023/10/18 14:59:57;;;;;;;0.90;0.60;;;16.60;99.90;19.80;99570.00;;;;4951809;28;20201;-69
2023/10/18 15:02:24;;;;;;;0.10;0.10;;;16.60;99.90;19.60;99556.00;;;;4954221;28;20680;-69
2023/10/18 15:04:52;;;;;;;0.43;0.43;;;16.50;99.90;19.90;99550.00;;;;4939918;28;20275;-69
2023/10/18 15:07:28;;;;;;;1.30;1.20;;;16.40;99.90;19.80;99565.00;;;;4964711;28;20197;-69
2023/10/18 15:09:54;;;;;;;2.30;2.00;;;16.40;99.90;19.50;99547.00;;;;5028059;28;20182;-72
2023/10/18 15:12:29;;;;;;;2.87;1.90;;;16.40;99.90;19.30;99537.00;;;;5021952;28;20571;-72
2023/10/18 15:14:57;;;;;;;6.57;1.57;;;16.20;99.90;19.10;99520.00;;;;5046814;28;20195;-68
2023/10/18 15:17:25;;;;;;;0.70;0.70;;;16.20;99.90;19.40;99524.00;;;;5027716;28;20196;-71
2023/10/18 15:19:55;;;;;;;0.50;0.50;;;16.20;99.90;19.30;99513.00;;;;5033646;28;20210;-71
2023/10/18 15:22:22;;;;;;;5.10;2.43;;;16.20;99.90;19.30;99529.00;;;;5045135;28;20199;-71
2023/10/18 15:24:52;;;;;;;0.57;0.57;;;16.30;99.90;19.40;99515.00;;;;5023427;28;20200;-73
2023/10/18 15:27:18;;;;;;;0.40;0.40;;;16.10;99.90;19.70;99531.00;;;;5034232;28;20212;-74
2023/10/18 15:29:52;;;;;;;1.13;0.97;;;16.30;99.90;19.60;99498.00;;;;5034464;28;20190;-72
2023/10/18 15:32:18;;;;;;;0.87;0.87;;;16.30;99.90;19.40;99519.00;;;;5018533;28;20216;-72
2023/10/18 15:34:45;;;;;;;1.17;1.17;;;16.20;99.90;19.20;99519.00;;;;5050338;28;20267;-70
2023/10/18 15:37:15;;;;;;;0.83;0.73;;;16.20;99.90;18.70;99497.00;;;;5035559;28;20525;-69
2023/10/18 15:39:42;;;;;;;1.27;0.77;;;16.20;99.90;19.80;99494.00;;;;5035218;28;20191;-70
2023/10/18 15:42:17;;;;;;;0.40;0.40;;;16.30;99.90;19.90;99505.00;;;;5035209;28;20190;-70
2023/10/18 15:45:17;;;;;;;0.93;0.90;;;16.50;99.90;19.30;99513.00;;;;5021572;28;20247;-70
2023/10/18 15:48:25;;;;;;;0.83;0.83;;;16.50;99.90;19.60;99479.00;;;;5035287;28;20227;-67
2023/10/18 15:51:01;;;;;;;0.40;0.40;;;16.20;99.90;19.50;99455.00;;;;4977032;28;20202;-70
2023/10/18 15:54:02;;;;;;;2.87;1.77;;;16.20;99.90;19.50;99484.00;;;;4982691;28;20241;-68
2023/10/18 15:56:55;;;;;;;1.43;1.33;;;16.20;99.90;19.50;99473.00;;;;5031537;28;20192;-68
2023/10/18 15:59:58;;;;;;;0.87;0.87;;;16.20;99.90;18.90;99442.00;;;;5034185;28;20194;-68
2023/10/18 16:03:03;;;;;;;3.20;0.90;;;16.00;99.90;19.00;99436.00;;;;5031220;28;20224;-68
2023/10/18 16:06:23;;;;;;;1.90;1.07;;;15.80;99.90;19.10;99443.00;;;;5029080;28;20216;-68
2023/10/18 16:09:27;;;;;;;0.97;0.97;;;15.80;99.90;18.50;99424.00;;;;5030739;28;20201;-68
2023/10/18 16:12:28;;;;;;;0.40;0.40;;;15.70;99.90;18.50;99432.00;;;;4973337;28;20227;-68
2023/10/18 16:15:55;;;;;;;4.53;1.40;;;15.70;99.90;18.60;99427.00;;;;4956216;28;20205;-68
2023/10/18 16:18:57;;;;;;;0.97;0.97;;;15.70;99.90;18.70;99422.00;;;;4929669;28;20574;-68
2023/10/18 16:21:49;;;;;;;0.43;0.43;;;15.80;99.90;18.70;99388.00;;;;4901419;29;20214;-68
2023/10/18 16:24:15;;;;;;;0.37;0.37;;;15.80;99.90;18.80;99380.00;;;;4969103;28;20233;-68
2023/10/18 16:27:05;;;;;;;0.67;0.67;;;15.60;99.90;19.00;99375.00;;;;4953621;29;20234;-68
2023/10/18 16:29:52;;;;;;;0.90;0.87;;;15.50;99.90;18.30;99407.00;;;;4968750;28;20182;-68
2023/10/18 16:32:25;;;;;;;0.50;0.50;;;15.50;99.90;18.60;99382.00;;;;4966734;28;20229;-68
2023/10/18 16:35:31;;;;;;;1.00;1.00;;;15.30;99.90;18.00;99399.00;;;;4973133;28;20209;-68
2023/10/18 16:38:00;;;;;;;1.07;1.00;;;15.20;99.90;18.00;99389.00;;;;4899267;29;20282;-68
2023/10/18 16:41:13;;;;;;;0.57;0.57;;;15.10;99.90;18.20;99381.00;;;;4920056;29;20234;-68
2023/10/18 16:44:01;;;;;;;2.57;0.93;;;15.10;99.90;18.70;99382.00;;;;4892690;29;20203;-69
2023/10/18 16:46:36;;;;;;;0.30;0.30;;;15.10;99.90;18.50;99365.00;;;;4900506;29;20648;-68
2023/10/18 16:49:28;;;;;;;1.23;1.13;;;15.20;99.90;18.40;99371.00;;;;4915756;29;20195;-69
2023/10/18 16:52:12;;;;;;;0.67;0.67;;;15.20;99.90;18.00;99367.00;;;;4893614;29;20329;-68
2023/10/18 16:54:47;;;;;;;0.30;0.30;;;15.10;99.90;18.60;99369.00;;;;4912195;29;20206;-68
2023/10/18 16:57:42;;;;;;;2.10;2.00;;;15.10;99.90;18.60;99364.00;;;;4915635;29;20283;-69
2023/10/18 17:00:22;;;;;;;1.23;0.93;;;15.20;99.90;18.40;99362.00;;;;4913633;29;20695;-69
2023/10/18 17:02:50;;;;;;;0.23;0.23;;;15.20;99.90;18.50;99354.00;;;;4915942;29;20205;-68
2023/10/18 17:05:34;;;;;;;1.13;0.50;;;15.10;99.90;17.70;99331.00;;;;4906964;29;20685;-68
2023/10/18 17:08:18;;;;;;;0.30;0.30;;;14.80;99.90;17.90;99328.00;;;;4931545;28;20195;-69
2023/10/18 17:11:02;;;;;;;0.83;0.80;;;14.70;99.90;18.10;99326.00;;;;4960495;28;20219;-68
2023/10/18 17:17:27;;;;;;;2.33;2.23;;;14.40;99.90;17.20;99282.00;;;;4964870;28;20717;-66
2023/10/18 17:20:18;;;;;;;1.93;1.83;;;14.20;99.90;17.20;99284.00;;;;4940379;28;20721;-66
2023/10/18 17:23:16;;;;;;;1.27;1.27;;;14.20;99.90;17.10;99275.00;;;;4940721;29;20314;-66
2023/10/18 17:26:11;;;;;;;12.63;1.63;;;14.10;99.90;16.40;99259.00;;;;4922768;29;20208;-66
2023/10/18 17:29:10;;;;;;;2.70;2.50;;;13.80;99.90;16.50;99248.00;;;;5010004;28;20197;-66
2023/10/18 17:32:20;;;;;;;3.60;3.50;;;13.80;99.90;16.30;99251.00;;;;5007819;28;20248;-66
2023/10/18 17:35:22;;;;;;;3.33;3.13;;;13.80;99.90;16.10;99252.00;;;;4991591;28;20727;-66
2023/10/18 17:38:29;;;;;;;3.70;3.50;;;13.70;99.90;16.00;99237.00;;;;5006109;28;20201;-66
2023/10/18 17:41:25;;;;;;;7.90;3.97;;;13.60;99.90;16.30;99233.00;;;;5031841;28;20242;-66
2023/10/18 17:44:13;;;;;;;5.23;3.07;;;13.60;99.90;16.70;99231.00;;;;5010496;28;20197;-65
2023/10/18 17:47:01;;;;;;;2.50;2.40;;;13.70;99.90;16.50;99219.00;;;;5007475;28;20605;-65
2023/10/18 17:49:50;;;;;;;2.47;2.37;;;13.70;99.90;16.60;99224.00;;;;4991711;28;20245;-65
2023/10/18 17:52:40;;;;;;;3.93;3.60;;;13.70;99.90;16.30;99219.00;;;;5007442;28;20213;-65
2023/10/18 17:55:33;;;;;;;2.53;2.43;;;13.70;99.90;16.30;99214.00;;;;5012512;28;20205;-65
2023/10/18 17:58:24;;;;;;;2.30;2.13;;;13.60;99.90;16.10;99206.00;;;;5032557;28;20265;-65
2023/10/18 18:01:22;;;;;;;2.93;2.80;;;13.50;99.90;15.80;99196.00;;;;5044103;28;20336;-65
2023/10/18 18:04:02;;;;;;;5.60;3.57;;;13.50;99.90;16.40;99193.00;;;;5031412;28;20194;-65
2023/10/18 18:06:54;;;;;;;3.40;3.20;;;13.50;99.90;16.50;99197.00;;;;5032225;28;20204;-64
2023/10/18 18:09:32;;;;;;;2.33;2.23;;;13.60;99.90;17.00;99152.00;;;;5013071;28;20268;-65
2023/10/18 18:12:04;;;;;;;4.50;2.63;;;13.80;99.90;16.60;99179.00;;;;5027590;28;20297;-65
2023/10/18 18:14:37;;;;;;;4.07;3.70;;;13.80;99.90;16.00;99177.00;;;;5030080;28;20197;-65
2023/10/18 18:17:13;;;;;;;2.37;2.27;;;13.60;99.90;16.10;99162.00;;;;5024608;28;20193;-65
2023/10/18 18:19:56;;;;;;;1.63;1.63;;;13.50;99.90;16.40;99133.00;;;;5032252;28;20195;-64
2023/10/18 18:22:31;;;;;;;2.20;2.10;;;13.50;99.90;16.30;99143.00;;;;5032631;28;20250;-67
2023/10/18 18:25:12;;;;;;;3.10;2.87;;;13.50;99.90;16.10;99104.00;;;;5028134;28;20230;-67
2023/10/18 18:27:52;;;;;;;2.97;2.47;;;13.50;99.90;15.60;99124.00;;;;5032786;28;20646;-67
2023/10/18 18:30:37;;;;;;;2.20;2.10;;;13.40;99.90;16.10;99127.00;;;;5031639;28;20236;-67
2023/10/18 18:33:15;;;;;;;2.80;2.60;;;13.40;99.90;15.50;99084.00;;;;5032949;28;20215;-67
2023/10/18 18:35:44;;;;;;;3.93;2.30;;;13.40;99.90;15.80;99085.00;;;;5032462;28;20211;-67
2023/10/18 18:38:25;;;;;;;4.57;2.40;;;13.30;99.90;16.00;99113.00;;;;5033743;28;20213;-67
2023/10/18 18:40:57;;;;;;;3.13;2.97;;;13.40;99.90;15.90;99099.00;;;;5029707;28;20204;-67
2023/10/18 18:43:32;;;;;;;1.83;1.83;;;13.40;99.90;16.10;99093.00;;;;5031313;28;20217;-67
2023/10/18 18:46:29;;;;;;;3.20;3.00;;;13.40;99.90;16.00;99095.00;;;;5031921;28;20204;-67
2023/10/18 18:49:04;;;;;;;3.37;3.07;;;13.40;99.90;15.50;99081.00;;;;5030305;28;20791;-67
2023/10/18 18:51:54;;;;;;;2.70;2.50;;;13.40;99.90;16.00;99087.00;;;;5031246;28;20215;-66
2023/10/18 18:54:23;;;;;;;3.63;3.43;;;13.40;99.90;15.70;99093.00;;;;5024094;28;20311;-66
2023/10/18 18:56:55;;;;;;;4.20;3.90;;;13.40;99.90;15.70;99084.00;;;;5034541;28;20194;-66
2023/10/18 18:59:36;;;;;;;4.53;4.23;;;13.30;99.90;16.20;99068.00;;;;5034254;28;20665;-67
2023/10/18 19:02:19;;;;;;;4.90;3.53;;;13.50;99.90;16.30;99065.00;;;;5044754;28;20195;-67
2023/10/18 19:04:53;;;;;;;7.63;7.23;;;13.50;99.90;15.60;99044.00;;;;5036256;28;20221;-67
2023/10/18 19:07:23;;;;;;;5.53;5.23;;;13.50;99.90;15.90;99033.00;;;;5034717;28;20194;-67
2023/10/18 19:10:01;;;;;;;4.40;4.23;;;13.40;99.90;15.70;99039.00;;;;5034752;28;20545;-67
2023/10/18 19:12:41;;;;;;;6.40;6.10;;;13.40;99.90;15.90;99051.00;;;;5031278;28;20622;-67
2023/10/18 19:15:20;;;;;;;5.30;5.10;;;13.40;99.90;16.30;99002.00;;;;5036526;28;20191;-67
2023/10/18 19:17:55;;;;;;;5.87;5.57;;;13.60;99.90;15.80;99055.00;;;;5031964;28;20559;-67
2023/10/18 19:20:48;;;;;;;7.07;6.57;;;13.50;99.90;16.30;99037.00;;;;5035982;28;20685;-67
2023/10/18 19:23:40;;;;;;;6.47;6.10;;;13.70;99.90;16.40;99020.00;;;;5030017;28;20242;-67
2023/10/18 19:26:48;;;;;;;5.97;5.60;;;13.60;99.90;16.20;99049.00;;;;4993966;28;20701;-67
2023/10/18 19:29:23;;;;;;;5.50;5.17;;;13.70;99.90;16.60;99036.00;;;;5032531;28;20664;-67
2023/10/18 19:31:58;;;;;;;5.70;5.23;;;13.80;99.90;16.50;99037.00;;;;5036752;28;20656;-67
2023/10/18 19:37:47;;;;;;;4.90;4.70;;;13.80;99.90;16.60;99039.00;;;;4941113;29;20234;-67
2023/10/18 19:40:18;;;;;;;5.17;4.87;;;13.90;99.90;16.70;99021.00;;;;4955500;28;20675;-67
2023/10/18 19:43:14;;;;;;;;;;;;;;;;;;;;;
2023/10/18 19:46:24;;;;;;;4.23;4.03;;;13.90;99.90;16.60;99029.00;;;;4981050;28;20701;-67
2023/10/18 19:49:20;;;;;;;4.60;4.40;;;13.90;99.90;16.90;98998.00;;;;4911344;29;20248;-67
2023/10/18 19:52:12;;;;;;;5.90;5.40;;;14.00;99.90;16.60;99015.00;;;;4926730;29;20686;-66
2023/10/18 19:54:59;;;;;;;5.50;5.20;;;14.00;99.90;16.50;99008.00;;;;4934461;29;20693;-66
2023/10/18 19:57:51;;;;;;;4.93;4.73;;;13.90;99.90;17.00;99015.00;;;;4919777;29;20289;-66
2023/10/18 20:01:33;;;;;;;4.43;4.23;;;14.10;99.90;17.30;99016.00;;;;4934568;29;20233;-66
2023/10/18 20:04:26;;;;;;;6.60;6.10;;;14.20;99.90;16.80;98997.00;;;;4807815;29;20213;-66
2023/10/18 20:07:18;;;;;;;4.80;4.60;;;14.20;99.90;17.20;99002.00;;;;4823390;29;20273;-66
2023/10/18 20:10:18;;;;;;;4.27;4.07;;;14.30;99.90;17.30;98988.00;;;;4816603;29;20230;-66